Vandalia, North Carolina
Current Conditions -  °F | °C
As of 4:54 PM on Monday 20 Oct 2014 (Local Time) from KGSO Reporting Station
Broken Clouds Broken Clouds  
Wind Chill: 67°   Ceiling: 25000
Heat Index: 67°   Visibility: 10mi
Dew Point: 46°   Wind: 8mph
Humidity: 47%   Direction: 240°WSW
Pressure: 29.97"   Gusts: NA
Location:  36°N, 79.7628°W
Report Text: KGSO 202054Z 24007KT 10SM FEW055 SCT200 BKN250 19/08 A2997 RMK AO2 SLP146 T01940078 56018
Loading
Personal Weather Stations






























Interactive Weather Map
Tropical Storm Tracking
New forecast layout! Learn more

10-Day Weather Forecast

Advertisements
Track Severe Weather on mobile